Time;durP1;ratioP1;P1;durP2;ratioP2;P2;SDS_P1;SDS_P2;PMS_P1;PMS_P2;Temp;Humidity;BMP_temperature;BMP_pressure;BME280_temperature;BME280_humidity;BME280_pressure;Samples;Min_cycle;Max_cycle;Signal;HPM_P1;HPM_P2
2022/09/03 00:00:24;;;;;;;3.15;0.95;;;;;;;;;;4988392;28;20069;-71
2022/09/03 00:03:22;;;;;;;4.55;1.20;;;;;;;;;;4987863;28;20125;-71
2022/09/03 00:06:11;;;;;;;4.22;0.98;;;;;;;;;;4944187;28;20510;-72
2022/09/03 00:08:50;;;;;;;4.15;0.80;;;;;;;;;;4969750;28;20046;-71
2022/09/03 00:11:26;;;;;;;2.75;0.90;;;;;;;;;;4987354;28;20049;-70
2022/09/03 00:13:58;;;;;;;2.47;0.90;;;;;;;;;;4990836;28;20042;-70
2022/09/03 00:16:26;;;;;;;4.22;0.90;;;;;;;;;;4987102;28;20046;-71
2022/09/03 00:18:55;;;;;;;4.60;0.90;;;;;;;;;;4987713;28;20179;-71
2022/09/03 00:21:36;;;;;;;4.57;0.98;;;;;;;;;;4986742;28;20078;-71
2022/09/03 00:24:04;;;;;;;5.72;0.90;;;;;;;;;;4986807;28;20034;-71
2022/09/03 00:26:33;;;;;;;4.32;1.00;;;;;;;;;;4986705;28;20048;-71
2022/09/03 00:29:02;;;;;;;5.10;0.90;;;;;;;;;;4990970;28;20046;-71
2022/09/03 00:31:36;;;;;;;3.67;0.80;;;;;;;;;;4991114;28;20100;-72
2022/09/03 00:34:05;;;;;;;4.28;0.90;;;;;;;;;;4992238;28;20105;-71
2022/09/03 00:36:31;;;;;;;4.95;0.80;;;;;;;;;;4993756;28;20050;-72
2022/09/03 00:38:58;;;;;;;3.88;1.00;;;;;;;;;;4974374;28;20050;-71
2022/09/03 00:41:37;;;;;;;5.57;0.90;;;;;;;;;;4994925;28;20047;-71
2022/09/03 00:44:35;;;;;;;5.55;1.05;;;;;;;;;;4994617;28;20505;-71
2022/09/03 00:47:23;;;;;;;4.72;0.90;;;;;;;;;;4915668;29;20499;-71
2022/09/03 00:49:59;;;;;;;8.70;0.90;;;;;;;;;;4899585;29;20084;-71
2022/09/03 00:52:34;;;;;;;3.95;0.90;;;;;;;;;;4912825;29;20055;-71
2022/09/03 00:55:20;;;;;;;4.88;1.00;;;;;;;;;;4907531;29;20052;-71
2022/09/03 00:57:56;;;;;;;3.58;1.08;;;;;;;;;;4909996;29;20048;-71
2022/09/03 01:00:22;;;;;;;6.30;0.90;;;;;;;;;;4902409;29;20051;-71
2022/09/03 01:03:07;;;;;;;6.00;0.88;;;;;;;;;;4913188;29;20662;-71
2022/09/03 01:05:33;;;;;;;3.67;0.90;;;;;;;;;;4915221;29;21720;-71
2022/09/03 01:08:05;;;;;;;4.10;1.08;;;;;;;;;;4905297;29;20546;-71
2022/09/03 01:10:38;;;;;;;2.58;0.82;;;;;;;;;;4898748;29;20056;-70
2022/09/03 01:13:11;;;;;;;4.18;0.80;;;;;;;;;;4915877;29;20071;-71
2022/09/03 01:15:37;;;;;;;4.47;1.00;;;;;;;;;;4909743;29;20079;-71
2022/09/03 01:18:21;;;;;;;2.63;0.90;;;;;;;;;;4899385;29;20492;-71
2022/09/03 01:20:47;;;;;;;3.40;0.77;;;;;;;;;;4913483;29;20145;-71
2022/09/03 01:23:26;;;;;;;5.00;0.80;;;;;;;;;;4988785;28;20132;-70
2022/09/03 01:26:06;;;;;;;4.18;0.80;;;;;;;;;;5001860;28;20042;-70
2022/09/03 01:28:41;;;;;;;2.83;0.93;;;;;;;;;;4993891;28;20125;-71
2022/09/03 01:31:13;;;;;;;4.75;0.98;;;;;;;;;;4972051;28;20057;-71
2022/09/03 01:33:42;;;;;;;2.50;0.80;;;;;;;;;;4987313;28;20054;-71
2022/09/03 01:36:22;;;;;;;4.75;0.85;;;;;;;;;;4986533;28;20145;-71
2022/09/03 01:38:57;;;;;;;3.40;0.80;;;;;;;;;;4974332;28;20454;-72
2022/09/03 01:44:31;;;;;;;3.85;0.82;;;;;;;;;;4993596;28;20042;-71
2022/09/03 01:47:08;;;;;;;5.57;0.95;;;;;;;;;;4993620;28;20117;-71
2022/09/03 01:49:38;;;;;;;4.43;0.90;;;;;;;;;;4990495;28;20038;-71
2022/09/03 01:52:16;;;;;;;2.65;0.90;;;;;;;;;;4971930;28;20121;-71
2022/09/03 01:54:52;;;;;;;4.05;0.80;;;;;;;;;;4990686;28;20464;-71
2022/09/03 01:57:21;;;;;;;4.47;1.00;;;;;;;;;;4991683;28;20406;-71
2022/09/03 02:00:07;;;;;;;4.72;1.05;;;;;;;;;;4973347;28;20038;-71
2022/09/03 02:02:34;;;;;;;6.45;1.00;;;;;;;;;;4974836;28;20046;-71
2022/09/03 02:05:00;;;;;;;6.40;1.08;;;;;;;;;;4991244;28;20101;-70
2022/09/03 02:07:32;;;;;;;3.35;0.90;;;;;;;;;;4991221;28;20101;-71
2022/09/03 02:09:59;;;;;;;8.38;1.10;;;;;;;;;;4989829;28;20038;-71
2022/09/03 02:12:25;;;;;;;4.97;0.90;;;;;;;;;;4991658;28;20077;-71
2022/09/03 02:14:52;;;;;;;3.92;1.05;;;;;;;;;;4992745;28;20104;-71
2022/09/03 02:17:18;;;;;;;2.35;0.95;;;;;;;;;;4992640;28;20524;-71
2022/09/03 02:19:44;;;;;;;2.58;0.80;;;;;;;;;;4990660;28;20497;-71
2022/09/03 02:22:10;;;;;;;5.88;0.80;;;;;;;;;;4991849;28;20054;-70
2022/09/03 02:24:36;;;;;;;3.55;1.10;;;;;;;;;;4992198;28;20050;-71
2022/09/03 02:27:02;;;;;;;2.88;0.70;;;;;;;;;;4992021;28;20121;-72
2022/09/03 02:29:28;;;;;;;4.38;0.93;;;;;;;;;;4989714;28;20133;-71
2022/09/03 02:31:54;;;;;;;3.72;0.85;;;;;;;;;;4992961;28;20454;-72
2022/09/03 02:34:20;;;;;;;3.47;0.80;;;;;;;;;;4990339;28;20060;-73
2022/09/03 02:36:47;;;;;;;4.32;1.00;;;;;;;;;;4990956;28;20137;-72
2022/09/03 02:39:14;;;;;;;3.22;0.93;;;;;;;;;;4989558;28;20050;-71
2022/09/03 02:41:40;;;;;;;3.83;0.90;;;;;;;;;;4990917;28;20066;-71
2022/09/03 02:44:09;;;;;;;3.22;1.10;;;;;;;;;;4989921;28;20101;-71
2022/09/03 02:46:38;;;;;;;3.20;0.93;;;;;;;;;;4992921;28;20478;-71
2022/09/03 02:49:04;;;;;;;3.30;0.95;;;;;;;;;;4990320;28;20074;-71
2022/09/03 02:51:35;;;;;;;3.85;1.00;;;;;;;;;;4990364;28;20042;-72
2022/09/03 02:54:01;;;;;;;4.40;0.80;;;;;;;;;;4990606;28;20109;-71
2022/09/03 02:56:27;;;;;;;4.13;1.00;;;;;;;;;;4992511;28;20101;-71
2022/09/03 02:58:53;;;;;;;3.67;0.90;;;;;;;;;;4994937;28;20046;-71
2022/09/03 03:01:20;;;;;;;7.82;1.15;;;;;;;;;;4995584;28;20452;-71
2022/09/03 03:03:46;;;;;;;4.13;1.30;;;;;;;;;;4999536;28;20071;-71
2022/09/03 03:06:13;;;;;;;2.65;1.00;;;;;;;;;;5007629;28;20042;-71
2022/09/03 03:08:39;;;;;;;4.85;1.10;;;;;;;;;;4995503;28;20121;-71
2022/09/03 03:11:06;;;;;;;6.40;1.13;;;;;;;;;;4995178;28;20121;-72
2022/09/03 03:13:32;;;;;;;5.90;1.02;;;;;;;;;;4996097;28;20097;-71
2022/09/03 03:16:05;;;;;;;7.15;1.17;;;;;;;;;;4995869;28;20125;-71
2022/09/03 03:18:31;;;;;;;3.13;0.95;;;;;;;;;;4994863;28;20409;-71
2022/09/03 03:20:57;;;;;;;4.38;1.02;;;;;;;;;;5002060;28;20512;-71
2022/09/03 03:23:23;;;;;;;7.28;1.10;;;;;;;;;;5000222;28;20113;-71
2022/09/03 03:25:49;;;;;;;4.45;1.23;;;;;;;;;;4996384;28;20047;-71
2022/09/03 03:28:16;;;;;;;6.35;1.10;;;;;;;;;;4993894;28;20049;-71
2022/09/03 03:30:46;;;;;;;3.22;0.93;;;;;;;;;;4992910;28;20050;-72
2022/09/03 03:33:12;;;;;;;4.00;0.82;;;;;;;;;;4993861;28;20113;-72
2022/09/03 03:35:39;;;;;;;4.00;1.20;;;;;;;;;;4995485;28;20046;-71
2022/09/03 03:38:05;;;;;;;5.28;1.00;;;;;;;;;;4994378;28;20114;-72
2022/09/03 03:40:32;;;;;;;3.38;1.05;;;;;;;;;;4996023;28;20101;-71
2022/09/03 03:42:58;;;;;;;3.58;0.93;;;;;;;;;;4993976;28;20409;-72
2022/09/03 03:45:24;;;;;;;8.32;1.30;;;;;;;;;;4995675;28;20050;-72
2022/09/03 03:47:51;;;;;;;1.90;0.75;;;;;;;;;;4993666;28;20039;-72
2022/09/03 03:50:17;;;;;;;6.00;1.20;;;;;;;;;;4994262;28;20042;-72
2022/09/03 03:52:43;;;;;;;4.50;1.30;;;;;;;;;;4991132;28;20136;-72
2022/09/03 03:55:09;;;;;;;3.00;1.10;;;;;;;;;;4975848;28;20101;-72
2022/09/03 03:57:35;;;;;;;4.57;1.15;;;;;;;;;;4982167;28;20046;-72
2022/09/03 04:00:01;;;;;;;3.35;1.00;;;;;;;;;;4986459;28;20047;-72
2022/09/03 04:02:27;;;;;;;3.80;1.00;;;;;;;;;;4973968;28;20070;-72
2022/09/03 04:04:53;;;;;;;7.97;1.20;;;;;;;;;;4994023;28;20082;-72
2022/09/03 04:07:19;;;;;;;5.80;1.30;;;;;;;;;;4993841;28;20042;-70
2022/09/03 04:09:46;;;;;;;4.95;1.15;;;;;;;;;;4994235;28;20081;-70
2022/09/03 04:12:12;;;;;;;5.97;1.20;;;;;;;;;;4992988;28;20118;-70
2022/09/03 04:14:38;;;;;;;5.55;1.30;;;;;;;;;;4994802;28;20066;-70
2022/09/03 04:17:04;;;;;;;4.32;1.48;;;;;;;;;;4977868;28;20116;-70
2022/09/03 04:19:30;;;;;;;3.95;1.10;;;;;;;;;;4989698;28;20101;-70
2022/09/03 04:21:56;;;;;;;4.20;1.38;;;;;;;;;;4994063;28;20054;-69
2022/09/03 04:24:22;;;;;;;3.85;1.27;;;;;;;;;;4994505;28;20042;-70
2022/09/03 04:26:49;;;;;;;5.63;1.60;;;;;;;;;;4994737;28;20195;-70
2022/09/03 04:29:15;;;;;;;4.75;1.13;;;;;;;;;;4990764;28;20050;-70
2022/09/03 04:32:51;;;;;;;4.43;1.40;;;;;;;;;;4991158;28;20038;-71
2022/09/03 04:34:27;;;;;;;7.28;1.52;;;;;;;;;;4990320;28;20054;-70
2022/09/03 04:36:53;;;;;;;3.78;1.17;;;;;;;;;;4994325;28;20497;-72
2022/09/03 04:39:19;;;;;;;4.20;1.30;;;;;;;;;;4954957;28;20062;-70
2022/09/03 04:41:45;;;;;;;4.05;1.38;;;;;;;;;;4991797;28;20500;-71
2022/09/03 04:44:11;;;;;;;4.95;1.45;;;;;;;;;;4992746;28;20045;-71
2022/09/03 04:46:38;;;;;;;3.70;1.30;;;;;;;;;;4974808;28;20409;-71
2022/09/03 04:49:06;;;;;;;4.75;1.50;;;;;;;;;;4971797;28;20038;-71
2022/09/03 04:51:32;;;;;;;4.90;1.60;;;;;;;;;;4991788;28;20050;-71
2022/09/03 04:54:00;;;;;;;4.75;1.45;;;;;;;;;;4974590;28;20442;-71
2022/09/03 04:56:30;;;;;;;5.03;1.50;;;;;;;;;;4959403;28;20094;-71
2022/09/03 04:58:57;;;;;;;7.87;1.60;;;;;;;;;;4991277;28;20049;-71
2022/09/03 05:01:24;;;;;;;5.07;1.60;;;;;;;;;;4993344;28;20057;-71
2022/09/03 05:03:53;;;;;;;7.13;1.70;;;;;;;;;;4999257;28;20054;-71
2022/09/03 05:06:19;;;;;;;4.95;1.50;;;;;;;;;;4992884;28;20039;-71
2022/09/03 05:08:49;;;;;;;6.03;1.60;;;;;;;;;;4992668;28;20085;-72
2022/09/03 05:11:15;;;;;;;4.72;1.83;;;;;;;;;;4993249;28;20074;-71
2022/09/03 05:13:42;;;;;;;8.40;1.80;;;;;;;;;;4973227;28;20093;-71
2022/09/03 05:16:09;;;;;;;4.80;1.80;;;;;;;;;;4992152;28;20057;-71
2022/09/03 05:18:35;;;;;;;7.78;1.73;;;;;;;;;;4984114;28;20046;-72
2022/09/03 05:21:02;;;;;;;5.55;1.67;;;;;;;;;;4997483;28;20093;-71
2022/09/03 05:23:29;;;;;;;7.50;1.60;;;;;;;;;;4974744;28;20057;-71
2022/09/03 05:26:00;;;;;;;5.97;1.80;;;;;;;;;;4993328;28;20049;-71
2022/09/03 05:28:26;;;;;;;10.40;1.77;;;;;;;;;;4993332;28;20046;-71
2022/09/03 05:31:19;;;;;;;6.03;1.70;;;;;;;;;;4989655;28;20073;-71
2022/09/03 05:33:46;;;;;;;7.38;1.80;;;;;;;;;;4988177;28;20050;-71
2022/09/03 05:36:13;;;;;;;4.20;1.75;;;;;;;;;;4991881;28;20126;-71
2022/09/03 05:38:40;;;;;;;7.05;1.98;;;;;;;;;;4972386;28;20057;-71
2022/09/03 05:41:07;;;;;;;10.85;2.13;;;;;;;;;;4991972;28;20125;-71
2022/09/03 05:43:34;;;;;;;8.93;1.90;;;;;;;;;;4992285;28;20045;-71
2022/09/03 05:46:01;;;;;;;8.00;1.77;;;;;;;;;;4992205;28;20057;-71
2022/09/03 05:48:28;;;;;;;4.97;1.90;;;;;;;;;;4982572;28;20114;-71
2022/09/03 05:51:01;;;;;;;6.35;1.98;;;;;;;;;;4991224;28;20055;-71
2022/09/03 05:53:28;;;;;;;4.00;1.50;;;;;;;;;;4991208;28;20038;-70
2022/09/03 05:55:55;;;;;;;5.20;1.50;;;;;;;;;;4987314;28;20464;-70
2022/09/03 05:58:21;;;;;;;4.97;1.52;;;;;;;;;;4991022;28;20054;-71
2022/09/03 06:00:47;;;;;;;6.28;1.73;;;;;;;;;;4990343;28;20176;-71
2022/09/03 06:03:13;;;;;;;4.53;1.98;;;;;;;;;;4984649;28;20438;-71
2022/09/03 06:05:38;;;;;;;5.97;1.70;;;;;;;;;;4989096;28;20042;-71
2022/09/03 06:08:04;;;;;;;4.10;1.67;;;;;;;;;;4991400;28;20042;-71
2022/09/03 06:10:30;;;;;;;8.02;1.67;;;;;;;;;;4990414;28;20082;-71
2022/09/03 06:13:01;;;;;;;3.35;1.35;;;;;;;;;;4991929;28;20068;-71
2022/09/03 06:15:27;;;;;;;4.53;1.58;;;;;;;;;;4991327;28;20553;-71
2022/09/03 06:17:53;;;;;;;5.75;1.90;;;;;;;;;;4991496;28;20134;-71
2022/09/03 06:20:19;;;;;;;5.03;1.67;;;;;;;;;;4991688;28;20041;-71
2022/09/03 06:22:52;;;;;;;5.70;1.73;;;;;;;;;;4974193;28;20042;-71
2022/09/03 06:25:18;;;;;;;5.57;1.65;;;;;;;;;;4991267;28;20060;-71
2022/09/03 06:27:44;;;;;;;5.50;1.38;;;;;;;;;;4992995;28;20454;-71
2022/09/03 06:30:12;;;;;;;4.80;1.50;;;;;;;;;;4988902;28;20133;-71
2022/09/03 06:32:49;;;;;;;6.78;1.65;;;;;;;;;;4985615;28;20057;-71
2022/09/03 06:35:15;;;;;;;6.60;1.80;;;;;;;;;;4982399;28;20038;-71
2022/09/03 06:37:42;;;;;;;4.45;1.30;;;;;;;;;;4986733;28;20406;-71
2022/09/03 06:40:12;;;;;;;4.22;1.48;;;;;;;;;;4978148;28;20047;-71
2022/09/03 06:42:41;;;;;;;5.50;1.77;;;;;;;;;;4987356;28;20056;-71
2022/09/03 06:45:11;;;;;;;8.50;1.55;;;;;;;;;;4990808;28;20102;-71
2022/09/03 06:47:36;;;;;;;3.95;1.50;;;;;;;;;;4990519;28;20445;-71
2022/09/03 06:50:03;;;;;;;5.30;1.40;;;;;;;;;;4990830;28;20042;-71
2022/09/03 06:52:29;;;;;;;6.53;1.38;;;;;;;;;;4987546;28;20997;-70
2022/09/03 06:54:55;;;;;;;8.25;1.50;;;;;;;;;;4987056;28;20092;-71
2022/09/03 06:57:21;;;;;;;4.68;1.30;;;;;;;;;;4989177;28;20178;-70
2022/09/03 06:59:48;;;;;;;10.88;3.00;;;;;;;;;;4990946;28;20070;-70
2022/09/03 07:02:14;;;;;;;5.25;1.30;;;;;;;;;;4985694;28;20110;-70
2022/09/03 07:04:40;;;;;;;3.15;1.13;;;;;;;;;;4969837;28;20043;-71
2022/09/03 07:07:12;;;;;;;5.75;1.38;;;;;;;;;;4988377;28;20046;-71
2022/09/03 07:09:38;;;;;;;4.03;1.20;;;;;;;;;;4992021;28;20046;-70
2022/09/03 07:12:04;;;;;;;3.40;1.35;;;;;;;;;;4992232;28;20072;-71
2022/09/03 07:14:30;;;;;;;5.97;1.35;;;;;;;;;;4991672;28;20536;-71
2022/09/03 07:16:56;;;;;;;6.80;1.48;;;;;;;;;;4974362;28;20486;-71
2022/09/03 07:19:22;;;;;;;4.63;1.40;;;;;;;;;;4989312;28;20045;-70
2022/09/03 07:21:48;;;;;;;6.70;1.27;;;;;;;;;;4991261;28;20042;-71
2022/09/03 07:24:14;;;;;;;4.35;1.40;;;;;;;;;;4991707;28;20125;-70
2022/09/03 07:26:45;;;;;;;7.80;1.10;;;;;;;;;;4991249;28;20078;-70
2022/09/03 07:29:11;;;;;;;;;;;;;;;;;;4991653;28;20058;-70
2022/09/03 07:31:39;;;;;;;5.28;1.20;;;;;;;;;;4988906;28;19922;-71
2022/09/03 07:34:06;;;;;;;11.13;1.80;;;;;;;;;;4973528;28;20050;-71
2022/09/03 07:36:37;;;;;;;7.38;1.38;;;;;;;;;;4991151;28;20050;-70
2022/09/03 07:39:04;;;;;;;4.90;1.30;;;;;;;;;;4990421;28;20454;-70
2022/09/03 07:41:32;;;;;;;9.30;1.38;;;;;;;;;;4991244;28;20085;-70
2022/09/03 07:43:59;;;;;;;6.13;1.30;;;;;;;;;;4977768;28;20061;-70
2022/09/03 07:46:26;;;;;;;5.53;1.55;;;;;;;;;;4972770;28;20046;-70
2022/09/03 07:48:57;;;;;;;4.53;1.10;;;;;;;;;;4989126;28;20035;-70
2022/09/03 07:51:28;;;;;;;6.18;1.30;;;;;;;;;;4982263;28;20158;-70
2022/09/03 07:53:56;;;;;;;6.22;1.20;;;;;;;;;;4993223;28;20088;-70
2022/09/03 07:56:22;;;;;;;5.18;1.08;;;;;;;;;;4994320;28;20358;-70
2022/09/03 07:58:48;;;;;;;4.95;1.02;;;;;;;;;;4994657;28;20461;-71
2022/09/03 08:01:16;;;;;;;5.05;1.30;;;;;;;;;;4989324;28;20050;-70
2022/09/03 08:03:52;;;;;;;5.32;1.30;;;;;;;;;;4987996;28;20092;-70
2022/09/03 08:06:20;;;;;;;7.60;1.50;;;;;;;;;;4985644;28;20043;-70
2022/09/03 08:08:46;;;;;;;5.43;1.25;;;;;;;;;;4989425;28;20126;-70
2022/09/03 08:11:19;;;;;;;5.45;1.25;;;;;;;;;;4994263;28;20053;-69
2022/09/03 08:13:53;;;;;;;6.45;1.50;;;;;;;;;;4993085;28;20077;-70
2022/09/03 08:16:20;;;;;;;7.15;1.10;;;;;;;;;;4987391;28;20034;-70
2022/09/03 08:18:46;;;;;;;5.18;1.13;;;;;;;;;;4994815;28;20092;-70
2022/09/03 08:21:17;;;;;;;6.40;1.10;;;;;;;;;;4993364;28;20058;-70
2022/09/03 08:23:47;;;;;;;8.48;1.60;;;;;;;;;;4994696;28;20054;-70
2022/09/03 08:26:14;;;;;;;6.35;1.30;;;;;;;;;;4993610;28;20057;-70
2022/09/03 08:28:41;;;;;;;5.05;1.30;;;;;;;;;;4994422;28;20078;-71
2022/09/03 08:31:10;;;;;;;6.93;1.30;;;;;;;;;;4976174;28;20050;-70
2022/09/03 08:33:36;;;;;;;4.72;1.20;;;;;;;;;;4992275;28;20112;-71
2022/09/03 08:36:03;;;;;;;8.43;1.33;;;;;;;;;;4994088;28;20094;-70
2022/09/03 08:38:31;;;;;;;6.90;1.40;;;;;;;;;;4994785;28;20440;-71
2022/09/03 08:41:17;;;;;;;6.40;1.42;;;;;;;;;;4992405;28;20046;-71
2022/09/03 08:44:01;;;;;;;6.45;1.27;;;;;;;;;;4975380;28;20047;-71
2022/09/03 08:46:36;;;;;;;12.85;1.40;;;;;;;;;;4977140;28;21016;-70
2022/09/03 08:49:03;;;;;;;6.97;1.40;;;;;;;;;;4994214;28;20125;-69
2022/09/03 08:51:29;;;;;;;8.80;1.52;;;;;;;;;;4976474;28;20458;-70
2022/09/03 08:53:56;;;;;;;5.63;1.10;;;;;;;;;;4993429;28;20051;-69
2022/09/03 08:56:27;;;;;;;7.47;1.10;;;;;;;;;;4991637;28;20493;-69
2022/09/03 08:58:53;;;;;;;;;;;;;;;;;;4994381;28;20081;-69
2022/09/03 09:01:41;;;;;;;8.68;1.40;;;;;;;;;;4992161;28;20377;-69
2022/09/03 09:04:18;;;;;;;6.47;1.42;;;;;;;;;;4993150;28;20405;-69
2022/09/03 09:06:48;;;;;;;6.35;1.10;;;;;;;;;;4974748;28;20054;-69
2022/09/03 09:09:19;;;;;;;4.28;0.90;;;;;;;;;;4987599;28;20060;-69
2022/09/03 09:12:04;;;;;;;8.60;1.98;;;;;;;;;;4991368;28;20089;-69
2022/09/03 09:14:30;;;;;;;5.15;1.20;;;;;;;;;;4956905;28;20053;-69
2022/09/03 09:17:15;;;;;;;6.75;1.17;;;;;;;;;;4993377;28;20050;-69
2022/09/03 09:19:47;;;;;;;5.60;1.48;;;;;;;;;;4993921;28;20046;-70
2022/09/03 09:22:18;;;;;;;3.35;0.90;;;;;;;;;;4960499;28;20453;-69
2022/09/03 09:24:47;;;;;;;6.20;1.00;;;;;;;;;;4993948;28;20047;-69
2022/09/03 09:27:16;;;;;;;6.45;1.30;;;;;;;;;;4993496;28;20452;-69
2022/09/03 09:29:43;;;;;;;5.80;1.40;;;;;;;;;;4975387;28;20054;-69
2022/09/03 09:32:10;;;;;;;5.60;1.15;;;;;;;;;;4993761;28;20061;-70
2022/09/03 09:34:37;;;;;;;5.40;1.33;;;;;;;;;;4993493;28;20057;-69
2022/09/03 09:37:07;;;;;;;5.75;1.40;;;;;;;;;;4993872;28;20048;-69
2022/09/03 09:39:33;;;;;;;4.63;1.00;;;;;;;;;;4975442;28;20121;-70
2022/09/03 09:42:08;;;;;;;5.60;1.42;;;;;;;;;;4992089;28;20431;-70
2022/09/03 09:44:34;;;;;;;8.73;1.00;;;;;;;;;;4992651;28;20038;-71
2022/09/03 09:47:10;;;;;;;7.57;1.20;;;;;;;;;;4993819;28;20042;-70
2022/09/03 09:49:38;;;;;;;7.13;1.10;;;;;;;;;;4993748;28;20086;-70
2022/09/03 09:52:07;;;;;;;4.90;1.08;;;;;;;;;;4992792;28;20092;-70
2022/09/03 09:54:33;;;;;;;3.03;1.13;;;;;;;;;;4976056;28;20053;-70
2022/09/03 09:57:02;;;;;;;8.82;1.27;;;;;;;;;;4992670;28;20050;-70
2022/09/03 09:59:29;;;;;;;12.10;1.33;;;;;;;;;;4987779;28;20058;-70
2022/09/03 10:02:04;;;;;;;9.95;1.45;;;;;;;;;;4989509;28;20042;-70
2022/09/03 10:04:31;;;;;;;5.93;1.15;;;;;;;;;;4990214;28;20092;-70
2022/09/03 10:07:01;;;;;;;6.38;1.20;;;;;;;;;;4989320;28;20497;-70
2022/09/03 10:09:29;;;;;;;4.35;1.00;;;;;;;;;;5002836;28;20493;-70
2022/09/03 10:12:05;;;;;;;8.57;1.38;;;;;;;;;;4990844;28;20104;-70
2022/09/03 10:14:47;;;;;;;5.40;1.08;;;;;;;;;;4993141;28;20038;-70
2022/09/03 10:17:22;;;;;;;9.88;1.08;;;;;;;;;;4993130;28;20085;-69
2022/09/03 10:22:45;;;;;;;5.32;1.00;;;;;;;;;;4978439;28;20050;-69
2022/09/03 10:25:13;;;;;;;6.22;1.25;;;;;;;;;;4974523;28;20077;-69
2022/09/03 10:27:41;;;;;;;6.03;1.10;;;;;;;;;;4992108;28;20058;-69
2022/09/03 10:30:07;;;;;;;6.70;1.27;;;;;;;;;;4991987;28;20125;-69
2022/09/03 10:32:58;;;;;;;10.15;1.00;;;;;;;;;;4992201;28;20482;-69
2022/09/03 10:35:27;;;;;;;5.57;1.10;;;;;;;;;;4966877;28;20050;-69
2022/09/03 10:38:02;;;;;;;10.90;1.67;;;;;;;;;;4973600;28;20072;-70
2022/09/03 10:40:34;;;;;;;8.85;1.40;;;;;;;;;;4976961;28;20409;-70
2022/09/03 10:43:08;;;;;;;7.97;1.10;;;;;;;;;;4958774;28;20038;-71
2022/09/03 10:45:55;;;;;;;7.18;1.33;;;;;;;;;;4974517;28;20050;-71
2022/09/03 10:48:37;;;;;;;7.38;1.23;;;;;;;;;;4975296;28;20053;-71
2022/09/03 10:51:10;;;;;;;5.65;1.13;;;;;;;;;;4992730;28;20043;-70
2022/09/03 10:53:37;;;;;;;8.65;1.10;;;;;;;;;;4991375;28;20050;-71
2022/09/03 10:56:22;;;;;;;13.35;1.55;;;;;;;;;;4991174;28;20126;-71
2022/09/03 10:58:51;;;;;;;5.90;1.00;;;;;;;;;;4959713;28;20050;-71
2022/09/03 11:01:23;;;;;;;6.20;1.10;;;;;;;;;;4988329;28;20058;-71
2022/09/03 11:03:54;;;;;;;6.20;1.10;;;;;;;;;;4973286;28;20070;-71
2022/09/03 11:06:23;;;;;;;7.40;1.33;;;;;;;;;;4989374;28;20054;-71
2022/09/03 11:09:01;;;;;;;6.28;1.00;;;;;;;;;;4973091;28;20545;-71
2022/09/03 11:11:32;;;;;;;4.95;0.88;;;;;;;;;;4983185;28;20057;-68
2022/09/03 11:14:07;;;;;;;4.20;1.00;;;;;;;;;;4988656;28;20615;-71
2022/09/03 11:16:36;;;;;;;4.95;1.10;;;;;;;;;;4990841;28;20057;-70
2022/09/03 11:19:04;;;;;;;11.73;1.30;;;;;;;;;;4995566;28;20109;-70
2022/09/03 11:21:31;;;;;;;7.60;1.10;;;;;;;;;;4975337;28;20117;-69
2022/09/03 11:24:07;;;;;;;6.72;1.10;;;;;;;;;;4993803;28;20046;-70
2022/09/03 11:26:34;;;;;;;5.78;1.10;;;;;;;;;;4993804;28;20054;-70
2022/09/03 11:29:12;;;;;;;4.35;1.00;;;;;;;;;;4978074;28;20111;-70
2022/09/03 11:31:38;;;;;;;11.05;1.45;;;;;;;;;;4976606;28;20406;-70
2022/09/03 11:34:12;;;;;;;4.18;1.15;;;;;;;;;;4987157;28;20513;-70
2022/09/03 11:36:39;;;;;;;4.70;0.98;;;;;;;;;;4995999;28;20174;-70
2022/09/03 11:39:23;;;;;;;6.60;1.02;;;;;;;;;;4995357;28;20474;-70
2022/09/03 11:42:07;;;;;;;9.38;1.00;;;;;;;;;;4995420;28;20043;-70
2022/09/03 11:44:37;;;;;;;5.30;1.00;;;;;;;;;;4974991;28;20078;-70
2022/09/03 11:47:13;;;;;;;6.80;1.15;;;;;;;;;;4995648;28;20101;-70
2022/09/03 11:49:44;;;;;;;6.00;1.38;;;;;;;;;;4995115;28;20104;-70
2022/09/03 11:52:11;;;;;;;;;;;;;;;;;;4985233;28;20777;-70
2022/09/03 11:54:44;;;;;;;5.95;1.05;;;;;;;;;;4993892;28;20053;-70
2022/09/03 11:57:22;;;;;;;8.75;1.20;;;;;;;;;;4994307;28;20416;-70
2022/09/03 11:59:49;;;;;;;3.90;1.00;;;;;;;;;;4981846;28;20054;-70
2022/09/03 12:02:24;;;;;;;8.00;1.10;;;;;;;;;;4983205;28;20050;-70
2022/09/03 12:05:09;;;;;;;5.82;1.02;;;;;;;;;;4994398;28;20042;-70
2022/09/03 12:07:39;;;;;;;3.42;1.00;;;;;;;;;;4994423;28;20052;-69
2022/09/03 12:10:05;;;;;;;5.32;1.10;;;;;;;;;;4993313;28;20116;-70
2022/09/03 12:12:46;;;;;;;2.75;0.82;;;;;;;;;;4995258;28;20054;-70
2022/09/03 12:15:13;;;;;;;;;;;;;;;;;;4995205;28;20050;-70
2022/09/03 12:17:48;;;;;;;5.05;0.95;;;;;;;;;;4995392;28;19921;-70
2022/09/03 12:20:17;;;;;;;3.78;0.90;;;;;;;;;;4994695;28;20055;-69
2022/09/03 12:22:43;;;;;;;7.13;1.08;;;;;;;;;;4993294;28;20453;-70
2022/09/03 12:25:13;;;;;;;4.10;1.00;;;;;;;;;;4999116;28;20443;-69
2022/09/03 12:27:40;;;;;;;4.13;1.00;;;;;;;;;;4975130;28;20552;-70
2022/09/03 12:30:14;;;;;;;4.82;0.90;;;;;;;;;;4969959;28;20059;-69
2022/09/03 12:32:40;;;;;;;9.60;1.52;;;;;;;;;;4993595;28;20098;-69
2022/09/03 12:35:10;;;;;;;2.28;0.85;;;;;;;;;;4993530;28;20395;-70
2022/09/03 12:37:38;;;;;;;7.10;1.13;;;;;;;;;;4991634;28;20062;-69
2022/09/03 12:40:04;;;;;;;4.20;1.10;;;;;;;;;;4994646;28;20518;-69
2022/09/03 12:42:31;;;;;;;3.65;0.73;;;;;;;;;;4993538;28;20053;-69
2022/09/03 12:45:09;;;;;;;3.72;1.10;;;;;;;;;;4994709;28;20069;-69
2022/09/03 12:47:39;;;;;;;4.75;1.10;;;;;;;;;;4994890;28;20074;-69
2022/09/03 12:50:08;;;;;;;5.20;0.93;;;;;;;;;;4994640;28;20042;-70
2022/09/03 12:52:43;;;;;;;4.45;1.00;;;;;;;;;;4994414;28;20050;-70
2022/09/03 12:55:28;;;;;;;3.00;0.90;;;;;;;;;;4993282;28;20071;-69
2022/09/03 12:58:03;;;;;;;4.38;0.90;;;;;;;;;;4975228;28;20047;-70
2022/09/03 13:00:32;;;;;;;4.65;1.25;;;;;;;;;;4975005;28;20043;-70
2022/09/03 13:03:07;;;;;;;4.25;1.02;;;;;;;;;;4978186;28;20047;-70
2022/09/03 13:05:41;;;;;;;2.85;0.90;;;;;;;;;;4993802;28;20509;-70
2022/09/03 13:08:08;;;;;;;5.20;0.98;;;;;;;;;;4993733;28;20053;-70
2022/09/03 13:10:42;;;;;;;3.28;1.00;;;;;;;;;;4976186;28;20046;-70
2022/09/03 13:13:26;;;;;;;5.22;0.90;;;;;;;;;;4994183;28;20413;-70
2022/09/03 13:16:11;;;;;;;4.22;1.25;;;;;;;;;;4989597;28;20043;-70
2022/09/03 13:18:40;;;;;;;4.30;1.00;;;;;;;;;;4978343;28;20049;-69
2022/09/03 13:21:21;;;;;;;5.15;1.00;;;;;;;;;;4986227;28;20038;-69
2022/09/03 13:23:53;;;;;;;6.70;1.08;;;;;;;;;;4989550;28;20108;-70
2022/09/03 13:26:35;;;;;;;7.07;1.00;;;;;;;;;;4993285;28;20042;-70
2022/09/03 13:29:04;;;;;;;4.38;1.05;;;;;;;;;;4994059;28;20132;-75
2022/09/03 13:31:40;;;;;;;3.65;1.10;;;;;;;;;;4992076;28;20132;-70
2022/09/03 13:34:08;;;;;;;3.92;0.93;;;;;;;;;;4994091;28;20124;-71
2022/09/03 13:36:57;;;;;;;5.30;1.13;;;;;;;;;;4993164;28;20488;-71
2022/09/03 13:39:32;;;;;;;6.82;1.00;;;;;;;;;;4979524;28;20047;-70
2022/09/03 13:42:07;;;;;;;2.72;1.00;;;;;;;;;;4980131;28;20073;-70
2022/09/03 13:44:38;;;;;;;8.88;1.10;;;;;;;;;;4979358;28;20130;-70
2022/09/03 13:47:06;;;;;;;;;;;;;;;;;;4985837;28;20046;-70
2022/09/03 13:52:41;;;;;;;6.15;1.10;;;;;;;;;;4991123;28;20054;-70
2022/09/03 13:55:14;;;;;;;6.32;0.93;;;;;;;;;;4967893;28;20398;-70
2022/09/03 13:57:50;;;;;;;8.25;1.42;;;;;;;;;;4977951;28;20093;-70
2022/09/03 14:00:43;;;;;;;3.97;1.10;;;;;;;;;;4983229;28;20038;-70
2022/09/03 14:03:18;;;;;;;5.97;1.05;;;;;;;;;;4988477;28;20413;-71
2022/09/03 14:05:44;;;;;;;6.18;1.10;;;;;;;;;;4990976;28;20057;-70
2022/09/03 14:08:23;;;;;;;3.22;0.90;;;;;;;;;;4985563;28;20046;-69
2022/09/03 14:10:57;;;;;;;5.38;1.10;;;;;;;;;;4988798;28;20056;-70
2022/09/03 14:13:42;;;;;;;7.05;1.67;;;;;;;;;;4991407;28;20046;-71
2022/09/03 14:16:10;;;;;;;5.70;1.10;;;;;;;;;;4987830;28;20055;-70
2022/09/03 14:18:42;;;;;;;6.93;1.20;;;;;;;;;;4992989;28;20042;-70
2022/09/03 14:21:21;;;;;;;4.40;0.90;;;;;;;;;;4992124;28;20397;-70
2022/09/03 14:24:10;;;;;;;3.40;1.10;;;;;;;;;;4992188;28;20042;-71
2022/09/03 14:26:37;;;;;;;5.40;1.00;;;;;;;;;;4992080;28;20061;-70
2022/09/03 14:29:03;;;;;;;9.00;1.10;;;;;;;;;;4975404;28;20074;-70
2022/09/03 14:31:50;;;;;;;4.22;0.98;;;;;;;;;;4992501;28;20051;-70
2022/09/03 14:34:19;;;;;;;5.40;1.00;;;;;;;;;;4975464;28;20050;-70
2022/09/03 14:37:04;;;;;;;8.88;1.30;;;;;;;;;;4990672;28;20608;-70
2022/09/03 14:39:39;;;;;;;5.38;1.15;;;;;;;;;;4987681;28;20054;-70
2022/09/03 14:42:08;;;;;;;15.98;1.50;;;;;;;;;;5004068;28;20041;-70
2022/09/03 14:44:52;;;;;;;5.32;1.25;;;;;;;;;;4978404;28;20049;-68
2022/09/03 14:47:28;;;;;;;5.75;1.10;;;;;;;;;;4992988;28;20126;-69
2022/09/03 14:50:13;;;;;;;4.00;1.13;;;;;;;;;;4991439;28;20058;-68
2022/09/03 14:53:02;;;;;;;4.88;0.90;;;;;;;;;;4991359;28;20149;-70
2022/09/03 14:55:48;;;;;;;13.73;1.60;;;;;;;;;;4973406;28;20042;-70
2022/09/03 14:58:21;;;;;;;6.05;1.13;;;;;;;;;;4973821;28;20116;-70
2022/09/03 15:00:57;;;;;;;2.60;0.95;;;;;;;;;;4983067;28;20039;-70
2022/09/03 15:03:23;;;;;;;6.35;1.00;;;;;;;;;;4991779;28;20047;-69
2022/09/03 15:05:58;;;;;;;4.47;0.90;;;;;;;;;;4992119;28;20042;-70
2022/09/03 15:08:33;;;;;;;3.28;1.10;;;;;;;;;;4971547;28;20054;-70
2022/09/03 15:11:00;;;;;;;8.48;1.15;;;;;;;;;;4991695;28;20193;-69
2022/09/03 15:13:28;;;;;;;6.55;1.25;;;;;;;;;;4988897;28;20173;-69